IAH Arrivals and Departures Today 1.29.07


#1

They very seldom do this, but they are departing runway 33L 33R and 9. Landing 26L and 26R. I’ve seen them do this awhile back an it makes it a good snapshot. Spacing shouldn’t be an issue.

Current Metar:
KIAH 281653Z 36011G16KT 10SM CLR 08/M04 A3039 RMK AO2 SLP290 T00831039

Are their any other airports in the country that do this?


#2

Occasionally, O’Hare will operate with some very odd configurations. I have seen traffic departing 27L and 9L simultaneously which is probably the most unique. They also have some other strange configurations which are not as dramatic.